Aérodrome :
LOGIN :

S'inscrire | Disclaimer

   EN    FR    IT 

 










Légende :    VFR   VFR Marginal   IFR   IFR Intensif   IFR Très Intensif
Visi : 
Plafond : 
>= 8 km
>= 3000ft
5 à 8 km
1000 à 3000 ft
1500m à 5 km
500 à 1000 ft
800 à 1500m
200 à 500 ft
< 800m
< 200 ft
Symboles :   Orages  Brouillard  Fortes neiges  Fortes précipitations  Vent > 20 kt
SIGMETs :   Divers  Orages  Givrage  Turbulence  Onde Orograph.  Cendres Volcan.






- Altitude de l'aérodrome : 614 ft
- Code IATA : CRL


EBCI - Charleroi

DERNIER METAR :
  • 232120Z 20011KT 9999 R24///// -RA FEW010 SCT030 BKN005 15/14 Q1001 NOSIG

METARs EXPIRÉS :
  • 232050Z 21011KT 6000 R24///// -RA SCT030 15/14 Q1001 NOSIG
  • 232020Z 19012KT 9999 -RA SCT032 15/14 Q1001 NOSIG
  • 231950Z 24007KT 190V270 3500 RA SCT032 BKN043 16/14 Q1002 NOSIG
  • 231920Z 17005KT 9999 FEW038 17/13 Q1001 NOSIG
  • 231850Z 17007KT 9999 FEW040 17/14 Q1002 NOSIG

TAF TAF EBCI
Valide du 23 à 18h jusqu'au 25 à 00h UTC


231720Z 2318/2424 18010KT 9999 SCT020 BKN040
TEMPO 2318/2323 22018G28KT 4000 SHRA
PROB30
TEMPO 2321/2323 2500 TSRA BKN014CB
PROB30
TEMPO 2400/2406 BKN009
PROB40
TEMPO 2412/2418 19015G25KT 4000 SHRA



MET'MAP, la Météo Aéronautique d'un coup d'oeil ! - Copyright ORBIFLY Décembre 2007 - Disclaimer

ORBIFLY MET'MAP TEAM :

Programmation & Développement : Alexandra Zaïnal
Sur une idée originale de : Baudouin d'Aumeries
Assistance à la programmation : Marc-Olivier Méhu
Soutien technique & logistique : Manuel Goepfert

Contact : metmap@orbifly.com




SOURCES & CREDITS :

   NOAA